sensor_id;sensor_type;location;lat;lon;timestamp;pressure;altitude;pressure_sealevel;temperature;humidity
8523;BME280;4299;42.202;24.736;2023-03-01T00:01:20;100403.91;;;7.45;100.00
8523;BME280;4299;42.202;24.736;2023-03-01T00:03:47;100403.03;;;7.45;100.00
8523;BME280;4299;42.202;24.736;2023-03-01T00:06:14;100405.38;;;7.54;100.00
8523;BME280;4299;42.202;24.736;2023-03-01T00:08:40;100405.38;;;7.54;100.00
8523;BME280;4299;42.202;24.736;2023-03-01T00:11:10;100409.56;;;7.61;100.00
8523;BME280;4299;42.202;24.736;2023-03-01T00:13:39;100414.59;;;7.70;100.00
8523;BME280;4299;42.202;24.736;2023-03-01T00:16:08;100412.59;;;7.78;100.00
8523;BME280;4299;42.202;24.736;2023-03-01T00:18:36;100410.78;;;7.80;100.00
8523;BME280;4299;42.202;24.736;2023-03-01T00:21:03;100407.38;;;7.75;100.00
8523;BME280;4299;42.202;24.736;2023-03-01T00:23:30;100413.50;;;7.77;100.00
8523;BME280;4299;42.202;24.736;2023-03-01T00:25:57;100405.75;;;7.71;100.00
8523;BME280;4299;42.202;24.736;2023-03-01T00:28:24;100406.53;;;7.74;100.00
8523;BME280;4299;42.202;24.736;2023-03-01T00:30:51;100405.50;;;7.80;100.00
8523;BME280;4299;42.202;24.736;2023-03-01T00:33:18;100402.75;;;7.83;100.00
8523;BME280;4299;42.202;24.736;2023-03-01T00:35:46;100402.91;;;7.78;100.00
8523;BME280;4299;42.202;24.736;2023-03-01T00:38:12;100400.31;;;7.77;100.00
8523;BME280;4299;42.202;24.736;2023-03-01T00:40:39;100403.97;;;7.73;100.00
8523;BME280;4299;42.202;24.736;2023-03-01T00:43:06;100403.97;;;7.73;100.00
8523;BME280;4299;42.202;24.736;2023-03-01T00:45:32;100402.31;;;7.69;100.00
8523;BME280;4299;42.202;24.736;2023-03-01T00:47:59;100395.22;;;7.71;100.00
8523;BME280;4299;42.202;24.736;2023-03-01T00:50:26;100383.97;;;7.64;100.00
8523;BME280;4299;42.202;24.736;2023-03-01T00:52:55;100385.59;;;7.68;100.00
8523;BME280;4299;42.202;24.736;2023-03-01T00:55:22;100375.16;;;7.65;100.00
8523;BME280;4299;42.202;24.736;2023-03-01T00:57:49;100375.13;;;7.67;100.00
8523;BME280;4299;42.202;24.736;2023-03-01T01:00:16;100379.28;;;7.74;100.00
8523;BME280;4299;42.202;24.736;2023-03-01T01:02:43;100375.72;;;7.75;100.00
8523;BME280;4299;42.202;24.736;2023-03-01T01:05:10;100379.19;;;7.77;100.00
8523;BME280;4299;42.202;24.736;2023-03-01T01:07:37;100368.59;;;7.78;100.00
8523;BME280;4299;42.202;24.736;2023-03-01T01:10:06;100373.72;;;7.83;100.00
8523;BME280;4299;42.202;24.736;2023-03-01T01:12:32;100368.44;;;7.83;100.00
8523;BME280;4299;42.202;24.736;2023-03-01T01:14:59;100356.16;;;7.82;100.00
8523;BME280;4299;42.202;24.736;2023-03-01T01:17:26;100362.28;;;7.82;100.00
8523;BME280;4299;42.202;24.736;2023-03-01T01:19:52;100359.59;;;7.84;100.00
8523;BME280;4299;42.202;24.736;2023-03-01T01:22:19;100364.03;;;7.83;100.00
8523;BME280;4299;42.202;24.736;2023-03-01T01:24:46;100359.59;;;7.84;100.00
8523;BME280;4299;42.202;24.736;2023-03-01T01:27:14;100360.31;;;7.89;100.00
8523;BME280;4299;42.202;24.736;2023-03-01T01:29:41;100358.63;;;7.88;100.00
8523;BME280;4299;42.202;24.736;2023-03-01T01:32:08;100357.69;;;7.89;100.00
8523;BME280;4299;42.202;24.736;2023-03-01T01:34:35;100356.72;;;7.92;100.00
8523;BME280;4299;42.202;24.736;2023-03-01T01:37:01;100356.06;;;7.85;100.00
8523;BME280;4299;42.202;24.736;2023-03-01T01:39:29;100366.63;;;7.85;100.00
8523;BME280;4299;42.202;24.736;2023-03-01T01:41:55;100356.06;;;7.85;100.00
8523;BME280;4299;42.202;24.736;2023-03-01T01:44:25;100355.97;;;7.88;100.00
8523;BME280;4299;42.202;24.736;2023-03-01T01:46:54;100347.25;;;7.86;100.00
8523;BME280;4299;42.202;24.736;2023-03-01T01:49:29;100350.69;;;7.88;100.00
8523;BME280;4299;42.202;24.736;2023-03-01T01:52:04;100353.41;;;7.85;100.00
8523;BME280;4299;42.202;24.736;2023-03-01T01:54:42;100357.78;;;7.86;100.00
8523;BME280;4299;42.202;24.736;2023-03-01T01:57:14;100350.69;;;7.88;100.00
8523;BME280;4299;42.202;24.736;2023-03-01T01:59:48;100360.41;;;7.88;100.00
8523;BME280;4299;42.202;24.736;2023-03-01T02:02:17;100352.41;;;7.89;100.00
8523;BME280;4299;42.202;24.736;2023-03-01T02:04:46;100350.88;;;7.82;100.00
8523;BME280;4299;42.202;24.736;2023-03-01T02:07:15;100352.72;;;7.80;100.00
8523;BME280;4299;42.202;24.736;2023-03-01T02:09:46;100351.16;;;7.73;100.00
8523;BME280;4299;42.202;24.736;2023-03-01T02:12:14;100353.00;;;7.71;100.00
8523;BME280;4299;42.202;24.736;2023-03-01T02:14:41;100346.84;;;7.70;100.00
8523;BME280;4299;42.202;24.736;2023-03-01T02:17:09;100352.34;;;7.63;100.00
8523;BME280;4299;42.202;24.736;2023-03-01T02:19:48;100341.88;;;7.60;100.00
8523;BME280;4299;42.202;24.736;2023-03-01T02:22:23;100334.53;;;7.41;100.00
8523;BME280;4299;42.202;24.736;2023-03-01T02:24:57;100346.09;;;7.37;100.00
8523;BME280;4299;42.202;24.736;2023-03-01T02:27:32;100347.19;;;7.30;100.00
8523;BME280;4299;42.202;24.736;2023-03-01T02:30:04;100338.25;;;7.34;100.00
8523;BME280;4299;42.202;24.736;2023-03-01T02:32:32;100336.53;;;7.33;100.00
8523;BME280;4299;42.202;24.736;2023-03-01T02:34:57;100339.78;;;7.43;100.00
8523;BME280;4299;42.202;24.736;2023-03-01T02:37:25;100337.69;;;7.53;100.00
8523;BME280;4299;42.202;24.736;2023-03-01T02:39:56;100339.22;;;7.60;100.00
8523;BME280;4299;42.202;24.736;2023-03-01T02:42:28;100347.91;;;7.65;100.00
8523;BME280;4299;42.202;24.736;2023-03-01T02:44:57;100339.84;;;7.69;100.00
8523;BME280;4299;42.202;24.736;2023-03-01T02:47:25;100343.97;;;7.78;100.00
8523;BME280;4299;42.202;24.736;2023-03-01T02:49:51;100340.50;;;7.76;100.00
8523;BME280;4299;42.202;24.736;2023-03-01T02:52:28;100336.88;;;7.80;100.00
8523;BME280;4299;42.202;24.736;2023-03-01T02:55:03;100335.34;;;7.73;100.00
8523;BME280;4299;42.202;24.736;2023-03-01T02:57:33;100327.41;;;7.73;100.00
8523;BME280;4299;42.202;24.736;2023-03-01T03:00:03;100338.69;;;7.78;100.00
8523;BME280;4299;42.202;24.736;2023-03-01T03:02:35;100333.69;;;7.69;100.00
8523;BME280;4299;42.202;24.736;2023-03-01T03:05:07;100338.72;;;7.76;100.00
8523;BME280;4299;42.202;24.736;2023-03-01T03:07:35;100338.97;;;7.69;100.00
8523;BME280;4299;42.202;24.736;2023-03-01T03:10:04;100334.81;;;7.60;100.00
8523;BME280;4299;42.202;24.736;2023-03-01T03:12:31;100335.81;;;7.58;100.00
8523;BME280;4299;42.202;24.736;2023-03-01T03:14:58;100329.06;;;7.48;100.00
8523;BME280;4299;42.202;24.736;2023-03-01T03:17:25;100324.16;;;7.35;100.00
8523;BME280;4299;42.202;24.736;2023-03-01T03:19:53;100334.78;;;7.32;100.00
8523;BME280;4299;42.202;24.736;2023-03-01T03:22:20;100333.34;;;7.22;100.00
8523;BME280;4299;42.202;24.736;2023-03-01T03:24:46;100330.88;;;7.16;100.00
8523;BME280;4299;42.202;24.736;2023-03-01T03:27:13;100325.69;;;7.13;100.00
8523;BME280;4299;42.202;24.736;2023-03-01T03:29:40;100319.59;;;7.11;100.00
8523;BME280;4299;42.202;24.736;2023-03-01T03:32:06;100317.88;;;7.10;100.00
8523;BME280;4299;42.202;24.736;2023-03-01T03:34:33;100323.94;;;7.14;100.00
8523;BME280;4299;42.202;24.736;2023-03-01T03:37:01;100326.09;;;7.30;100.00
8523;BME280;4299;42.202;24.736;2023-03-01T03:39:28;100336.78;;;7.24;100.00
8523;BME280;4299;42.202;24.736;2023-03-01T03:42:00;100334.91;;;7.29;100.00
8523;BME280;4299;42.202;24.736;2023-03-01T03:44:27;100334.72;;;7.35;100.00
8523;BME280;4299;42.202;24.736;2023-03-01T03:49:39;100329.44;;;7.35;100.00
8523;BME280;4299;42.202;24.736;2023-03-01T03:52:07;100314.47;;;7.36;100.00
8523;BME280;4299;42.202;24.736;2023-03-01T03:54:39;100311.16;;;7.29;100.00
8523;BME280;4299;42.202;24.736;2023-03-01T03:59:50;100313.63;;;7.04;100.00
8523;BME280;4299;42.202;24.736;2023-03-01T04:02:25;100325.94;;;7.04;100.00
8523;BME280;4299;42.202;24.736;2023-03-01T04:04:54;100316.75;;;6.88;100.00
8523;BME280;4299;42.202;24.736;2023-03-01T04:07:25;100325.56;;;6.87;100.00
8523;BME280;4299;42.202;24.736;2023-03-01T04:09:55;100332.97;;;6.73;100.00
8523;BME280;4299;42.202;24.736;2023-03-01T04:12:25;100301.53;;;6.67;100.00
8523;BME280;4299;42.202;24.736;2023-03-01T04:14:56;100305.16;;;6.62;100.00
8523;BME280;4299;42.202;24.736;2023-03-01T04:31:23;100319.94;;;6.68;100.00
8523;BME280;4299;42.202;24.736;2023-03-01T04:33:52;100322.34;;;6.76;100.00
8523;BME280;4299;42.202;24.736;2023-03-01T04:36:21;100308.50;;;6.69;100.00
8523;BME280;4299;42.202;24.736;2023-03-01T04:38:48;100316.19;;;6.77;100.00
8523;BME280;4299;42.202;24.736;2023-03-01T04:41:17;100325.81;;;6.78;100.00
8523;BME280;4299;42.202;24.736;2023-03-01T04:43:44;100330.44;;;6.70;100.00
8523;BME280;4299;42.202;24.736;2023-03-01T04:46:12;100331.16;;;6.75;100.00
8523;BME280;4299;42.202;24.736;2023-03-01T04:48:41;100345.25;;;6.74;100.00
8523;BME280;4299;42.202;24.736;2023-03-01T04:51:09;100337.50;;;6.68;100.00
8523;BME280;4299;42.202;24.736;2023-03-01T04:53:39;100322.59;;;6.67;100.00
8523;BME280;4299;42.202;24.736;2023-03-01T04:56:06;100334.69;;;6.74;100.00
8523;BME280;4299;42.202;24.736;2023-03-01T05:01:48;100307.88;;;6.59;100.00
8523;BME280;4299;42.202;24.736;2023-03-01T05:05:01;100331.56;;;6.59;100.00
8523;BME280;4299;42.202;24.736;2023-03-01T05:07:27;100328.13;;;6.57;100.00
8523;BME280;4299;42.202;24.736;2023-03-01T05:09:54;100323.66;;;6.59;100.00
8523;BME280;4299;42.202;24.736;2023-03-01T05:12:21;100321.81;;;6.64;100.00
8523;BME280;4299;42.202;24.736;2023-03-01T05:14:48;100322.53;;;6.70;100.00
8523;BME280;4299;42.202;24.736;2023-03-01T05:17:16;100317.16;;;6.73;100.00
8523;BME280;4299;42.202;24.736;2023-03-01T05:19:43;100320.56;;;6.78;100.00
8523;BME280;4299;42.202;24.736;2023-03-01T05:22:11;100311.09;;;6.71;100.00
8523;BME280;4299;42.202;24.736;2023-03-01T05:24:38;100322.53;;;6.70;100.00
8523;BME280;4299;42.202;24.736;2023-03-01T05:27:05;100318.72;;;6.80;100.00
8523;BME280;4299;42.202;24.736;2023-03-01T05:29:32;100324.59;;;6.89;100.00
8523;BME280;4299;42.202;24.736;2023-03-01T05:32:03;100326.41;;;6.87;100.00
8523;BME280;4299;42.202;24.736;2023-03-01T05:34:31;100327.38;;;6.85;100.00
8523;BME280;4299;42.202;24.736;2023-03-01T05:36:59;100331.81;;;6.83;100.00
8523;BME280;4299;42.202;24.736;2023-03-01T05:39:28;100332.72;;;6.82;100.00
8523;BME280;4299;42.202;24.736;2023-03-01T05:41:59;100337.09;;;6.83;100.00
8523;BME280;4299;42.202;24.736;2023-03-01T05:44:28;100334.53;;;6.80;100.00
8523;BME280;4299;42.202;24.736;2023-03-01T05:46:55;100334.53;;;6.80;100.00
8523;BME280;4299;42.202;24.736;2023-03-01T05:49:22;100341.53;;;6.81;100.00
8523;BME280;4299;42.202;24.736;2023-03-01T05:51:51;100350.19;;;6.86;100.00
8523;BME280;4299;42.202;24.736;2023-03-01T05:54:18;100350.97;;;6.89;100.00
8523;BME280;4299;42.202;24.736;2023-03-01T05:56:46;100348.13;;;6.97;100.00
8523;BME280;4299;42.202;24.736;2023-03-01T05:59:13;100355.13;;;6.98;100.00
8523;BME280;4299;42.202;24.736;2023-03-01T06:01:42;100355.13;;;6.98;100.00
8523;BME280;4299;42.202;24.736;2023-03-01T06:04:09;100363.94;;;6.97;100.00
8523;BME280;4299;42.202;24.736;2023-03-01T06:06:38;100361.97;;;7.05;100.00
8523;BME280;4299;42.202;24.736;2023-03-01T06:09:06;100360.22;;;7.04;100.00
8523;BME280;4299;42.202;24.736;2023-03-01T06:11:34;100365.50;;;7.04;100.00
8523;BME280;4299;42.202;24.736;2023-03-01T06:14:03;100361.09;;;7.04;100.00
8523;BME280;4299;42.202;24.736;2023-03-01T06:16:29;100354.94;;;7.04;100.00
8523;BME280;4299;42.202;24.736;2023-03-01T06:18:56;100361.88;;;7.08;100.00
8523;BME280;4299;42.202;24.736;2023-03-01T06:21:23;100359.19;;;7.10;100.00
8523;BME280;4299;42.202;24.736;2023-03-01T06:23:49;100359.16;;;7.11;100.00
8523;BME280;4299;42.202;24.736;2023-03-01T06:26:17;100365.31;;;7.10;100.00
8523;BME280;4299;42.202;24.736;2023-03-01T06:28:43;100352.97;;;7.12;100.00
8523;BME280;4299;42.202;24.736;2023-03-01T06:31:12;100350.97;;;7.20;100.00
8523;BME280;4299;42.202;24.736;2023-03-01T06:33:39;100359.72;;;7.22;100.00
8523;BME280;4299;42.202;24.736;2023-03-01T06:36:07;100363.91;;;7.29;100.00
8523;BME280;4299;42.202;24.736;2023-03-01T06:38:34;100355.91;;;7.32;100.00
8523;BME280;4299;42.202;24.736;2023-03-01T06:41:01;100360.97;;;7.38;100.00
8523;BME280;4299;42.202;24.736;2023-03-01T06:43:28;100363.63;;;7.38;100.00
8523;BME280;4299;42.202;24.736;2023-03-01T06:45:55;100360.22;;;7.35;100.00
8523;BME280;4299;42.202;24.736;2023-03-01T06:48:23;100360.25;;;7.33;100.00
8523;BME280;4299;42.202;24.736;2023-03-01T06:50:50;100359.44;;;7.31;100.00
8523;BME280;4299;42.202;24.736;2023-03-01T06:53:16;100361.16;;;7.32;100.00
8523;BME280;4299;42.202;24.736;2023-03-01T06:55:43;100373.56;;;7.30;100.00
8523;BME280;4299;42.202;24.736;2023-03-01T06:58:10;100369.22;;;7.28;100.00
8523;BME280;4299;42.202;24.736;2023-03-01T07:00:37;100375.44;;;7.25;100.00
8523;BME280;4299;42.202;24.736;2023-03-01T07:03:06;100364.13;;;7.22;100.00
8523;BME280;4299;42.202;24.736;2023-03-01T07:05:34;100371.97;;;7.23;100.00
8523;BME280;4299;42.202;24.736;2023-03-01T07:08:01;100357.88;;;7.24;100.00
8523;BME280;4299;42.202;24.736;2023-03-01T07:10:28;100361.16;;;7.32;100.00
8523;BME280;4299;42.202;24.736;2023-03-01T07:12:55;100364.38;;;7.43;100.00
8523;BME280;4299;42.202;24.736;2023-03-01T07:15:22;100357.44;;;7.39;100.00
8523;BME280;4299;42.202;24.736;2023-03-01T07:17:49;100360.97;;;7.38;100.00
8523;BME280;4299;42.202;24.736;2023-03-01T07:20:16;100367.09;;;7.40;100.00
8523;BME280;4299;42.202;24.736;2023-03-01T07:22:44;100353.72;;;7.47;100.00
8523;BME280;4299;42.202;24.736;2023-03-01T07:25:11;100365.09;;;7.49;100.00
8523;BME280;4299;42.202;24.736;2023-03-01T07:27:38;100369.34;;;7.53;100.00
8523;BME280;4299;42.202;24.736;2023-03-01T07:30:05;100366.56;;;7.59;100.00
8523;BME280;4299;42.202;24.736;2023-03-01T07:32:32;100363.06;;;7.58;100.00
8523;BME280;4299;42.202;24.736;2023-03-01T07:34:59;100354.91;;;7.66;100.00
8523;BME280;4299;42.202;24.736;2023-03-01T07:37:26;100358.47;;;7.65;100.00
8523;BME280;4299;42.202;24.736;2023-03-01T07:39:54;100354.91;;;7.66;100.00
8523;BME280;4299;42.202;24.736;2023-03-01T07:42:21;100358.34;;;7.68;100.00
8523;BME280;4299;42.202;24.736;2023-03-01T07:44:47;100362.63;;;7.72;100.00
8523;BME280;4299;42.202;24.736;2023-03-01T07:47:14;100361.63;;;7.76;100.00
8523;BME280;4299;42.202;24.736;2023-03-01T07:49:41;100354.59;;;7.75;100.00
8523;BME280;4299;42.202;24.736;2023-03-01T07:52:09;100347.50;;;7.77;100.00
8523;BME280;4299;42.202;24.736;2023-03-01T07:54:36;100358.06;;;7.77;100.00
8523;BME280;4299;42.202;24.736;2023-03-01T07:57:07;100359.72;;;7.81;100.00
8523;BME280;4299;42.202;24.736;2023-03-01T07:59:34;100352.75;;;7.78;100.00
8523;BME280;4299;42.202;24.736;2023-03-01T08:02:01;100357.50;;;7.95;100.00
8523;BME280;4299;42.202;24.736;2023-03-01T08:04:32;100353.38;;;8.14;100.00
8523;BME280;4299;42.202;24.736;2023-03-01T08:07:00;100338.63;;;8.07;100.00
8523;BME280;4299;42.202;24.736;2023-03-01T08:09:27;100338.78;;;8.03;100.00
8523;BME280;4299;42.202;24.736;2023-03-01T08:11:53;100351.53;;;8.16;100.00
8523;BME280;4299;42.202;24.736;2023-03-01T08:14:22;100370.75;;;8.21;100.00
8523;BME280;4299;42.202;24.736;2023-03-01T08:16:49;100367.28;;;8.19;100.00
8523;BME280;4299;42.202;24.736;2023-03-01T08:19:17;100363.84;;;8.17;100.00
8523;BME280;4299;42.202;24.736;2023-03-01T08:21:44;100365.75;;;8.12;100.00
8523;BME280;4299;42.202;24.736;2023-03-01T08:24:12;100365.53;;;8.18;100.00
8523;BME280;4299;42.202;24.736;2023-03-01T08:26:39;100363.72;;;8.20;100.00
8523;BME280;4299;42.202;24.736;2023-03-01T08:29:08;100358.34;;;8.24;100.00
8523;BME280;4299;42.202;24.736;2023-03-01T08:31:39;100362.81;;;8.21;100.00
8523;BME280;4299;42.202;24.736;2023-03-01T08:34:08;100354.88;;;8.21;100.00
8523;BME280;4299;42.202;24.736;2023-03-01T08:36:37;100361.09;;;8.20;100.00
8523;BME280;4299;42.202;24.736;2023-03-01T08:39:05;100352.44;;;8.15;100.00
8523;BME280;4299;42.202;24.736;2023-03-01T08:41:32;100352.41;;;8.17;100.00
8523;BME280;4299;42.202;24.736;2023-03-01T08:43:59;100354.81;;;8.25;100.00
8523;BME280;4299;42.202;24.736;2023-03-01T08:46:27;100350.97;;;8.35;100.00
8523;BME280;4299;42.202;24.736;2023-03-01T08:49:03;100333.75;;;8.21;100.00
8523;BME280;4299;42.202;24.736;2023-03-01T08:51:36;100362.59;;;8.28;100.00
8523;BME280;4299;42.202;24.736;2023-03-01T08:54:03;100356.25;;;8.35;100.00
8523;BME280;4299;42.202;24.736;2023-03-01T08:56:30;100359.63;;;8.40;100.00
8523;BME280;4299;42.202;24.736;2023-03-01T08:58:56;100348.19;;;8.39;100.00
8523;BME280;4299;42.202;24.736;2023-03-01T09:01:23;100340.88;;;8.47;100.00
8523;BME280;4299;42.202;24.736;2023-03-01T09:03:50;100353.59;;;8.61;100.00
8523;BME280;4299;42.202;24.736;2023-03-01T09:06:18;100349.41;;;8.80;100.00
8523;BME280;4299;42.202;24.736;2023-03-01T09:08:47;100350.81;;;8.90;100.00
8523;BME280;4299;42.202;24.736;2023-03-01T09:11:16;100355.97;;;8.93;100.00
8523;BME280;4299;42.202;24.736;2023-03-01T09:13:43;100354.78;;;8.77;100.00
8523;BME280;4299;42.202;24.736;2023-03-01T09:16:11;100367.44;;;8.69;100.00
8523;BME280;4299;42.202;24.736;2023-03-01T09:18:38;100361.63;;;8.58;100.00
8523;BME280;4299;42.202;24.736;2023-03-01T09:21:08;100363.31;;;8.61;100.00
8523;BME280;4299;42.202;24.736;2023-03-01T09:23:39;100359.06;;;8.55;100.00
8523;BME280;4299;42.202;24.736;2023-03-01T09:26:06;100359.41;;;8.46;100.00
8523;BME280;4299;42.202;24.736;2023-03-01T09:28:34;100350.81;;;8.39;100.00
8523;BME280;4299;42.202;24.736;2023-03-01T09:31:02;100360.56;;;8.37;100.00
8523;BME280;4299;42.202;24.736;2023-03-01T09:33:30;100347.41;;;8.36;100.00
8523;BME280;4299;42.202;24.736;2023-03-01T09:35:57;100348.19;;;8.39;100.00
8523;BME280;4299;42.202;24.736;2023-03-01T09:38:24;100348.72;;;8.49;100.00
8523;BME280;4299;42.202;24.736;2023-03-01T09:40:52;100344.63;;;8.65;100.00
8523;BME280;4299;42.202;24.736;2023-03-01T09:43:23;100344.19;;;8.77;100.00
8523;BME280;4299;42.202;24.736;2023-03-01T09:45:54;100339.66;;;8.82;100.00
8523;BME280;4299;42.202;24.736;2023-03-01T09:48:25;100351.69;;;8.91;100.00
8523;BME280;4299;42.202;24.736;2023-03-01T09:50:52;100343.88;;;8.86;100.00
8523;BME280;4299;42.202;24.736;2023-03-01T09:53:22;100342.81;;;8.92;100.00
8523;BME280;4299;42.202;24.736;2023-03-01T09:55:53;100348.84;;;8.95;100.00
8523;BME280;4299;42.202;24.736;2023-03-01T09:58:46;100341.19;;;9.13;100.00
8523;BME280;4299;42.202;24.736;2023-03-01T10:01:29;100344.53;;;9.18;100.00
8523;BME280;4299;42.202;24.736;2023-03-01T10:04:28;100339.69;;;9.06;100.00
8523;BME280;4299;42.202;24.736;2023-03-01T10:07:07;100342.88;;;8.90;100.00
8523;BME280;4299;42.202;24.736;2023-03-01T10:09:40;100331.25;;;8.70;100.00
8523;BME280;4299;42.202;24.736;2023-03-01T10:12:12;100339.44;;;8.62;100.00
8523;BME280;4299;42.202;24.736;2023-03-01T10:14:46;100330.72;;;8.60;100.00
8523;BME280;4299;42.202;24.736;2023-03-01T10:17:25;100321.97;;;8.58;100.00
8523;BME280;4299;42.202;24.736;2023-03-01T10:19:55;100328.47;;;8.74;100.00
8523;BME280;4299;42.202;24.736;2023-03-01T10:22:27;100324.38;;;8.90;100.00
8523;BME280;4299;42.202;24.736;2023-03-01T10:24:57;100325.50;;;9.07;100.00
8523;BME280;4299;42.202;24.736;2023-03-01T10:27:31;100328.50;;;9.21;100.00
8523;BME280;4299;42.202;24.736;2023-03-01T10:30:06;100332.84;;;9.23;100.00
8523;BME280;4299;42.202;24.736;2023-03-01T10:32:41;100323.34;;;9.18;100.00
8523;BME280;4299;42.202;24.736;2023-03-01T10:35:17;100319.75;;;9.20;100.00
8523;BME280;4299;42.202;24.736;2023-03-01T10:37:57;100319.66;;;9.22;100.00
8523;BME280;4299;42.202;24.736;2023-03-01T10:40:25;100326.81;;;9.20;100.00
8523;BME280;4299;42.202;24.736;2023-03-01T10:42:53;100330.66;;;9.34;100.00
8523;BME280;4299;42.202;24.736;2023-03-01T10:45:34;100327.59;;;9.45;100.00
8523;BME280;4299;42.202;24.736;2023-03-01T10:48:09;100312.81;;;9.40;100.00
8523;BME280;4299;42.202;24.736;2023-03-01T10:50:38;100313.44;;;9.46;100.00
8523;BME280;4299;42.202;24.736;2023-03-01T10:53:19;100312.28;;;9.53;100.00
8523;BME280;4299;42.202;24.736;2023-03-01T10:55:47;100308.16;;;9.46;100.00
8523;BME280;4299;42.202;24.736;2023-03-01T10:58:23;100309.75;;;9.50;100.00
8523;BME280;4299;42.202;24.736;2023-03-01T11:00:51;100306.72;;;9.61;100.00
8523;BME280;4299;42.202;24.736;2023-03-01T11:03:21;100301.78;;;9.73;100.00
8523;BME280;4299;42.202;24.736;2023-03-01T11:05:57;100296.63;;;9.70;100.00
8523;BME280;4299;42.202;24.736;2023-03-01T11:08:39;100293.16;;;9.68;100.00
8523;BME280;4299;42.202;24.736;2023-03-01T11:11:22;100293.28;;;9.65;100.00
8523;BME280;4299;42.202;24.736;2023-03-01T11:13:57;100285.28;;;9.67;100.00
8523;BME280;4299;42.202;24.736;2023-03-01T11:16:31;100282.22;;;9.77;100.00
8523;BME280;4299;42.202;24.736;2023-03-01T11:19:14;100277.91;;;9.97;100.00
8523;BME280;4299;42.202;24.736;2023-03-01T11:21:47;100279.88;;;9.92;100.00
8523;BME280;4299;42.202;24.736;2023-03-01T11:24:17;100276.78;;;9.81;100.00
8523;BME280;4299;42.202;24.736;2023-03-01T11:26:48;100279.06;;;9.68;100.00
8523;BME280;4299;42.202;24.736;2023-03-01T11:29:26;100267.31;;;9.53;100.00
8523;BME280;4299;42.202;24.736;2023-03-01T11:31:56;100269.53;;;9.42;100.00
8523;BME280;4299;42.202;24.736;2023-03-01T11:34:32;100269.38;;;9.45;100.00
8523;BME280;4299;42.202;24.736;2023-03-01T11:37:13;100263.97;;;9.48;100.00
8523;BME280;4299;42.202;24.736;2023-03-01T11:39:48;100253.25;;;9.51;100.00
8523;BME280;4299;42.202;24.736;2023-03-01T11:42:20;100230.00;;;9.59;100.00
8523;BME280;4299;42.202;24.736;2023-03-01T11:44:52;100236.91;;;9.63;100.00
8523;BME280;4299;42.202;24.736;2023-03-01T11:47:45;100242.41;;;9.57;100.00
8523;BME280;4299;42.202;24.736;2023-03-01T11:50:26;100246.03;;;9.56;100.00
8523;BME280;4299;42.202;24.736;2023-03-01T11:55:55;100235.28;;;9.59;100.00
8523;BME280;4299;42.202;24.736;2023-03-01T11:58:44;100246.38;;;9.47;100.00
8523;BME280;4299;42.202;24.736;2023-03-01T12:01:28;100236.72;;;9.46;100.00
8523;BME280;4299;42.202;24.736;2023-03-01T12:04:14;100250.19;;;9.40;100.00
8523;BME280;4299;42.202;24.736;2023-03-01T12:06:55;100241.56;;;9.35;100.00
8523;BME280;4299;42.202;24.736;2023-03-01T12:09:47;100242.84;;;9.25;100.00
8523;BME280;4299;42.202;24.736;2023-03-01T12:12:39;100236.50;;;9.29;100.00
8523;BME280;4299;42.202;24.736;2023-03-01T12:15:33;100236.50;;;9.29;100.00
8523;BME280;4299;42.202;24.736;2023-03-01T12:20:59;100231.69;;;9.17;100.00
8523;BME280;4299;42.202;24.736;2023-03-01T12:23:56;100221.34;;;9.11;100.00
8523;BME280;4299;42.202;24.736;2023-03-01T12:26:30;100218.66;;;9.12;100.00
8523;BME280;4299;42.202;24.736;2023-03-01T12:29:24;100215.81;;;9.17;100.00
8523;BME280;4299;42.202;24.736;2023-03-01T12:32:09;100213.09;;;8.96;100.00
8523;BME280;4299;42.202;24.736;2023-03-01T12:34:59;100196.16;;;9.01;100.00
8523;BME280;4299;42.202;24.736;2023-03-01T12:37:38;100212.75;;;9.06;100.00
8523;BME280;4299;42.202;24.736;2023-03-01T12:43:09;100212.50;;;9.12;100.00
8523;BME280;4299;42.202;24.736;2023-03-01T12:45:57;100214.34;;;9.10;100.00
8523;BME280;4299;42.202;24.736;2023-03-01T12:48:47;100215.16;;;9.12;100.00
8523;BME280;4299;42.202;24.736;2023-03-01T12:51:22;100211.34;;;8.95;100.00
8523;BME280;4299;42.202;24.736;2023-03-01T12:53:53;100215.16;;;8.88;100.00
8523;BME280;4299;42.202;24.736;2023-03-01T12:56:22;100209.97;;;8.85;100.00
8523;BME280;4299;42.202;24.736;2023-03-01T12:58:57;100206.41;;;8.86;100.00
8523;BME280;4299;42.202;24.736;2023-03-01T13:01:35;100201.44;;;8.77;100.00
8523;BME280;4299;42.202;24.736;2023-03-01T13:04:15;100206.25;;;8.91;100.00
8523;BME280;4299;42.202;24.736;2023-03-01T13:06:55;100204.56;;;8.88;100.00
8523;BME280;4299;42.202;24.736;2023-03-01T13:09:31;100210.78;;;8.87;100.00
8523;BME280;4299;42.202;24.736;2023-03-01T13:12:01;100209.97;;;8.85;100.00
8523;BME280;4299;42.202;24.736;2023-03-01T13:14:45;100204.56;;;8.88;100.00
8523;BME280;4299;42.202;24.736;2023-03-01T13:17:41;100206.53;;;8.83;100.00
8523;BME280;4299;42.202;24.736;2023-03-01T13:20:14;100205.38;;;8.67;100.00
8523;BME280;4299;42.202;24.736;2023-03-01T13:22:42;100205.72;;;8.58;100.00
8523;BME280;4299;42.202;24.736;2023-03-01T13:25:14;100211.09;;;8.55;100.00
8523;BME280;4299;42.202;24.736;2023-03-01T13:27:44;100210.13;;;8.57;100.00
8523;BME280;4299;42.202;24.736;2023-03-01T13:30:38;100211.34;;;8.72;100.00
8523;BME280;4299;42.202;24.736;2023-03-01T13:33:42;100214.13;;;8.69;100.00
8523;BME280;4299;42.202;24.736;2023-03-01T13:36:10;100210.31;;;8.53;100.00
8523;BME280;4299;42.202;24.736;2023-03-01T13:38:55;100207.31;;;8.62;100.00
8523;BME280;4299;42.202;24.736;2023-03-01T13:41:49;100216.28;;;8.58;100.00
8523;BME280;4299;42.202;24.736;2023-03-01T13:44:21;100209.72;;;8.45;100.00
8523;BME280;4299;42.202;24.736;2023-03-01T13:46:53;100208.00;;;8.44;100.00
8523;BME280;4299;42.202;24.736;2023-03-01T13:49:22;100207.88;;;8.47;100.00
8523;BME280;4299;42.202;24.736;2023-03-01T13:51:50;100208.53;;;8.53;100.00